Prattsville, Arkansas
Current Conditions -  °F | °C
As of 11:08 AM on Sunday 23 Nov 2014 (Local Time) from KADF Reporting Station
Moderate Rain Moderate Rain  
Wind Chill: 61°   Ceiling: 700
Heat Index: 61°   Visibility: 2.5mi
Dew Point: 61°   Wind: 0mph
Humidity: 100%   Direction: NA
Pressure: 29.49"   Gusts: NA
Location:  34.31°N, 92.55°W
Report Text: KADF 231708Z AUTO 00000KT 2 1/2SM RA BR SCT002 OVC007 16/16 A2949 RMK AO2 CIG 005V010 P0003
Loading
Personal Weather Stations






























Interactive Weather Map New forecast layout! Learn more

10-Day Weather Forecast

Advertisements
Track Severe Weather on mobile